Time;durP1;ratioP1;P1;durP2;ratioP2;P2;SDS_P1;SDS_P2;PMS_P1;PMS_P2;Temp;Humidity;BMP_temperature;BMP_pressure;BME280_temperature;BME280_humidity;BME280_pressure;Samples;Min_cycle;Max_cycle;Signal;HPM_P1;HPM_P2
2023/11/10 00:00:29;;;;;;;1.45;0.88;;;;;;;8.37;64.87;98398.91;10511455;28;20040;-63
2023/11/10 00:05:32;;;;;;;3.40;1.00;;;;;;;8.37;64.54;98374.63;10512759;28;20052;-63
2023/11/10 00:10:34;;;;;;;0.52;0.52;;;;;;;8.07;64.81;98376.91;10512640;28;20048;-62
2023/11/10 00:15:36;;;;;;;1.40;0.70;;;;;;;8.02;65.27;98370.25;10512145;28;20091;-62
2023/11/10 00:20:39;;;;;;;2.65;0.82;;;;;;;7.96;65.25;98369.88;10512089;28;20152;-63
2023/11/10 00:25:41;;;;;;;2.03;0.98;;;;;;;8.06;65.32;98370.84;10502298;28;20129;-62
2023/11/10 00:30:44;;;;;;;0.93;0.52;;;;;;;8.18;65.13;98377.78;10517881;28;20419;-63
2023/11/10 00:35:46;;;;;;;1.48;0.85;;;;;;;8.20;64.86;98385.50;10516852;28;20051;-63
2023/11/10 00:40:48;;;;;;;4.00;1.10;;;;;;;8.17;64.61;98390.94;10519972;28;20581;-62
2023/11/10 00:45:55;;;;;;;4.15;1.50;;;;;;;8.12;64.74;98387.84;10519806;28;20585;-63
2023/11/10 00:50:57;;;;;;;4.82;1.98;;;;;;;8.18;64.98;98380.38;10501666;28;20054;-63
2023/11/10 00:55:59;;;;;;;1.67;0.93;;;;;;;7.92;65.37;98384.06;10517481;28;20054;-63
2023/11/10 01:01:01;;;;;;;1.05;0.70;;;;;;;8.01;65.46;98383.41;10518229;28;20048;-62
2023/11/10 01:06:05;;;;;;;1.77;1.00;;;;;;;8.18;65.50;98376.97;10513734;28;20086;-62
2023/11/10 01:11:07;;;;;;;1.40;1.13;;;;;;;8.28;65.33;98380.56;10495109;28;20067;-62
2023/11/10 01:16:10;;;;;;;0.70;0.57;;;;;;;8.30;65.58;98376.06;10496018;28;20158;-62
2023/11/10 01:21:12;;;;;;;0.90;0.80;;;;;;;8.39;65.49;98370.97;10500789;28;20086;-64
2023/11/10 01:26:15;;;;;;;1.92;1.08;;;;;;;8.30;65.00;98360.44;10515693;28;20051;-64
2023/11/10 01:31:17;;;;;;;4.13;1.20;;;;;;;8.15;65.58;98345.94;10518561;28;20492;-64
2023/11/10 01:36:20;;;;;;;1.90;1.08;;;;;;;8.08;65.80;98344.72;10517162;28;20047;-64
2023/11/10 01:41:23;;;;;;;1.75;0.90;;;;;;;8.12;66.02;98335.78;10498008;28;20043;-64
2023/11/10 01:46:40;;;;;;;1.17;0.98;;;;;;;8.25;65.97;98336.50;10496743;28;20056;-64
2023/11/10 01:51:44;;;;;;;1.40;1.10;;;;;;;8.27;65.88;98332.00;10495770;28;20053;-64
2023/11/10 01:56:47;;;;;;;1.63;0.90;;;;;;;8.11;65.68;98310.66;10515073;28;20052;-64
2023/11/10 02:01:49;;;;;;;1.58;0.80;;;;;;;8.04;65.74;98316.31;10498253;28;20068;-64
2023/11/10 02:06:52;;;;;;;0.75;0.70;;;;;;;8.11;65.74;98300.25;10514725;28;20055;-64
2023/11/10 02:11:54;;;;;;;1.17;0.88;;;;;;;8.06;65.68;98282.34;10513344;28;20044;-64
2023/11/10 02:16:56;;;;;;;0.85;0.80;;;;;;;8.02;65.84;98271.34;10514035;28;20171;-64
2023/11/10 02:21:58;;;;;;;1.27;0.80;;;;;;;7.87;66.20;98276.88;10513575;28;20495;-64
2023/11/10 02:27:00;;;;;;;0.75;0.60;;;;;;;7.86;66.47;98291.66;10514899;28;20036;-64
2023/11/10 02:32:02;;;;;;;1.17;0.85;;;;;;;8.12;66.17;98278.50;10515473;28;20067;-64
2023/11/10 02:37:07;;;;;;;1.55;0.80;;;;;;;8.04;66.23;98282.47;10478389;28;20103;-63
2023/11/10 02:42:09;;;;;;;0.73;0.65;;;;;;;8.10;66.15;98285.56;10496324;28;20079;-63
2023/11/10 02:47:11;;;;;;;1.25;0.70;;;;;;;8.23;66.17;98288.91;10513974;28;20532;-64
2023/11/10 02:52:13;;;;;;;1.77;0.82;;;;;;;8.22;65.95;98282.06;10514778;28;20130;-64
2023/11/10 02:57:15;;;;;;;1.63;0.75;;;;;;;8.22;66.09;98290.66;10514117;28;20512;-64
2023/11/10 03:02:18;;;;;;;0.77;0.70;;;;;;;8.35;65.99;98293.19;10493696;28;20075;-65
2023/11/10 03:07:20;;;;;;;2.30;0.82;;;;;;;8.03;65.97;98293.00;10496439;28;20040;-64
2023/11/10 03:12:23;;;;;;;4.25;0.98;;;;;;;7.82;66.71;98287.63;10513307;28;20055;-64
2023/11/10 03:17:25;;;;;;;0.90;0.70;;;;;;;7.92;66.78;98291.19;10514323;28;20047;-64
2023/11/10 03:22:28;;;;;;;0.77;0.68;;;;;;;7.90;66.86;98285.28;10497675;28;20044;-64
2023/11/10 03:27:30;;;;;;;0.80;0.70;;;;;;;8.02;66.69;98281.75;10495605;28;20052;-64
2023/11/10 03:32:32;;;;;;;1.95;0.93;;;;;;;8.11;65.48;98269.84;10513455;28;20048;-64
2023/11/10 03:37:35;;;;;;;1.95;0.50;;;;;;;8.15;65.50;98276.47;10512693;28;20056;-64
2023/11/10 03:42:37;;;;;;;1.10;0.63;;;;;;;8.23;65.52;98274.13;10511224;28;20139;-64
2023/11/10 03:47:39;;;;;;;1.98;0.63;;;;;;;8.38;65.40;98265.13;10507382;28;20060;-64
2023/11/10 03:52:42;;;;;;;0.40;0.40;;;;;;;8.43;65.16;98262.16;10510991;28;20055;-65
2023/11/10 03:57:45;;;;;;;0.90;0.60;;;;;;;8.32;64.95;98263.00;10515552;28;20051;-63
2023/11/10 04:02:47;;;;;;;2.90;0.80;;;;;;;8.34;64.82;98255.06;10521492;28;20054;-64
2023/11/10 04:07:49;;;;;;;0.40;0.40;;;;;;;8.33;64.68;98262.03;10501401;28;20047;-63
2023/11/10 04:12:52;;;;;;;1.70;0.98;;;;;;;8.32;64.63;98257.81;10520156;28;20166;-64
2023/11/10 04:17:54;;;;;;;0.40;0.40;;;;;;;8.31;64.68;98250.06;10519444;28;20037;-64
2023/11/10 04:22:56;;;;;;;0.90;0.73;;;;;;;8.37;64.63;98244.41;10522666;28;20052;-64
2023/11/10 04:28:00;;;;;;;3.20;1.02;;;;;;;8.39;64.41;98252.91;10520899;28;20210;-63
2023/11/10 04:33:02;;;;;;;0.45;0.43;;;;;;;8.35;64.54;98254.09;10500337;28;20046;-64
2023/11/10 04:38:04;;;;;;;2.00;0.63;;;;;;;8.26;64.46;98260.03;10519474;28;20051;-65
2023/11/10 04:43:06;;;;;;;2.00;0.90;;;;;;;8.24;64.18;98259.31;10520584;28;20048;-64
2023/11/10 04:48:08;;;;;;;1.63;0.47;;;;;;;8.13;64.37;98259.31;10498590;28;20103;-64
2023/11/10 04:53:13;;;;;;;2.05;0.52;;;;;;;7.99;64.08;98253.34;10517076;28;20044;-65
2023/11/10 04:58:15;;;;;;;3.53;0.90;;;;;;;7.90;64.05;98253.19;10485467;28;20078;-64
2023/11/10 05:03:18;;;;;;;3.80;0.80;;;;;;;7.73;64.19;98245.84;10500926;28;20487;-64
2023/11/10 05:08:21;;;;;;;1.10;0.55;;;;;;;7.63;64.44;98250.06;10498618;28;20048;-64
2023/11/10 05:13:23;;;;;;;2.53;0.60;;;;;;;7.47;64.29;98260.75;10518667;28;20048;-65
2023/11/10 05:18:27;;;;;;;1.02;0.88;;;;;;;7.45;64.51;98257.44;10497632;28;20448;-64
2023/11/10 05:23:32;;;;;;;1.15;0.82;;;;;;;7.67;64.33;98259.31;10499571;28;20040;-64
2023/11/10 05:28:35;;;;;;;1.85;0.82;;;;;;;7.73;63.72;98254.47;10517184;28;20521;-63
2023/11/10 05:33:37;;;;;;;1.38;0.73;;;;;;;7.69;63.94;98253.03;10495132;28;20051;-64
2023/11/10 05:38:39;;;;;;;0.70;0.50;;;;;;;7.52;63.99;98260.44;10498419;28;20134;-63
2023/11/10 05:43:41;;;;;;;0.50;0.50;;;;;;;7.39;64.31;98259.66;10516715;28;20125;-64
2023/11/10 05:48:43;;;;;;;0.88;0.55;;;;;;;7.34;64.80;98267.00;10497514;28;20089;-65
2023/11/10 05:53:46;;;;;;;1.38;0.88;;;;;;;7.40;64.80;98269.97;10517601;28;20051;-64
2023/11/10 05:58:48;;;;;;;4.43;0.47;;;;;;;7.54;64.94;98271.56;10517975;28;20059;-64
2023/11/10 06:03:50;;;;;;;0.88;0.80;;;;;;;7.69;64.80;98271.25;10516128;28;20516;-64
2023/11/10 06:08:54;;;;;;;2.95;1.05;;;;;;;7.61;64.43;98288.38;10516552;28;20042;-65
2023/11/10 06:14:00;;;;;;;1.58;0.85;;;;;;;7.42;64.31;98299.31;10497821;28;20408;-64
2023/11/10 06:19:02;;;;;;;0.68;0.68;;;;;;;7.38;64.50;98307.44;10515036;28;20421;-63
2023/11/10 06:24:05;;;;;;;0.32;0.30;;;;;;;7.47;64.49;98309.38;10516523;28;20402;-63
2023/11/10 06:29:07;;;;;;;0.60;0.60;;;;;;;7.62;64.25;98300.44;10512738;28;20392;-64
2023/11/10 06:34:10;;;;;;;1.17;0.50;;;;;;;7.86;64.08;98312.47;10513458;28;20051;-63
2023/11/10 06:39:13;;;;;;;0.60;0.45;;;;;;;7.93;63.80;98316.28;10515727;28;20036;-63
2023/11/10 06:44:19;;;;;;;1.25;0.73;;;;;;;7.85;63.92;98321.22;10514806;28;20039;-63
2023/11/10 06:49:21;;;;;;;1.98;0.70;;;;;;;7.86;63.78;98325.47;10513774;28;20046;-63
2023/11/10 06:54:23;;;;;;;2.03;0.90;;;;;;;7.98;63.60;98324.56;10512387;28;20778;-63
2023/11/10 06:59:28;;;;;;;1.65;1.08;;;;;;;8.12;63.53;98328.78;10514554;28;20440;-63
2023/11/10 07:04:30;;;;;;;3.15;0.90;;;;;;;8.13;63.48;98335.66;10512565;28;20106;-63
2023/11/10 07:09:32;;;;;;;3.15;0.70;;;;;;;8.16;63.26;98337.19;10514089;28;20048;-63
2023/11/10 07:14:34;;;;;;;1.92;0.60;;;;;;;8.06;63.54;98339.59;10512455;28;20048;-64
2023/11/10 07:19:36;;;;;;;5.28;0.60;;;;;;;7.81;63.55;98350.19;10511185;28;20040;-64
2023/11/10 07:24:38;;;;;;;0.60;0.55;;;;;;;7.68;63.89;98344.22;10511239;28;20052;-68
2023/11/10 07:29:40;;;;;;;0.80;0.47;;;;;;;7.80;64.04;98346.75;10512624;28;20504;-67
2023/11/10 07:34:45;;;;;;;3.42;1.10;;;;;;;7.98;63.64;98344.56;10519678;28;20325;-67
2023/11/10 07:39:47;;;;;;;3.13;1.00;;;;;;;8.38;63.05;98343.28;10512977;28;20312;-67
2023/11/10 07:44:50;;;;;;;5.05;1.25;;;;;;;8.30;62.71;98350.84;10482229;28;20089;-69
2023/11/10 07:49:52;;;;;;;2.58;1.42;;;;;;;8.30;62.71;98353.47;10518161;28;20282;-68
2023/11/10 07:54:54;;;;;;;5.30;1.40;;;;;;;8.17;62.65;98357.06;10503929;28;20375;-69
2023/11/10 08:00:00;;;;;;;3.65;1.38;;;;;;;8.20;62.53;98360.28;10518884;28;20272;-69
2023/11/10 08:05:13;;;;;;;1.92;0.70;;;;;;;8.50;62.43;98362.34;10521648;28;20535;-69
2023/11/10 08:10:16;;;;;;;3.33;0.88;;;;;;;8.42;61.91;98388.16;10519709;28;20098;-69
2023/11/10 08:15:19;;;;;;;1.33;0.70;;;;;;;8.42;61.76;98372.53;10519402;28;20583;-69
2023/11/10 08:20:22;;;;;;;2.75;0.77;;;;;;;8.30;60.98;98370.84;10486544;28;20089;-69
2023/11/10 08:25:24;;;;;;;0.77;0.52;;;;;;;8.41;61.29;98368.25;10520949;28;20152;-69
2023/11/10 08:30:27;;;;;;;2.97;1.08;;;;;;;8.59;61.00;98367.69;10502120;28;20479;-68
2023/11/10 08:35:29;;;;;;;1.33;0.73;;;;;;;8.41;60.90;98373.47;10520371;28;20113;-69
2023/11/10 08:40:31;;;;;;;1.30;0.70;;;;;;;8.71;60.92;98373.72;10520933;28;20051;-69
2023/11/10 08:45:36;;;;;;;0.82;0.55;;;;;;;9.19;60.30;98382.16;10501549;28;20464;-68
2023/11/10 08:50:39;;;;;;;2.10;0.60;;;;;;;9.49;60.01;98377.94;10501373;28;20503;-69
2023/11/10 08:55:41;;;;;;;0.90;0.50;;;;;;;9.77;59.08;98378.38;10518186;28;20067;-69
2023/11/10 09:00:43;;;;;;;1.27;0.68;;;;;;;9.76;58.72;98377.53;10501777;28;20055;-69
2023/11/10 09:05:46;;;;;;;0.50;0.50;;;;;;;9.86;58.83;98368.00;10501603;28;20103;-68
2023/11/10 09:10:48;;;;;;;1.35;0.60;;;;;;;9.99;58.33;98365.22;10519542;28;20043;-68
2023/11/10 09:15:51;;;;;;;1.25;0.63;;;;;;;10.18;57.47;98360.13;10518112;28;20056;-68
2023/11/10 09:21:04;;;;;;;1.38;0.50;;;;;;;10.20;57.68;98373.88;10520071;28;20044;-67
2023/11/10 09:26:06;;;;;;;1.65;0.77;;;;;;;10.26;57.58;98363.75;10515875;28;20243;-68
2023/11/10 09:31:09;;;;;;;2.50;0.73;;;;;;;10.14;57.11;98364.78;10518790;28;20052;-67
2023/11/10 09:36:11;;;;;;;2.05;0.60;;;;;;;10.28;56.84;98356.63;10517032;28;20055;-67
2023/11/10 09:41:14;;;;;;;1.17;0.40;;;;;;;10.34;56.70;98357.91;10499830;28;20042;-67
2023/11/10 09:46:18;;;;;;;0.50;0.50;;;;;;;10.43;56.42;98360.59;10516267;28;20055;-68
2023/11/10 09:51:24;;;;;;;1.52;0.70;;;;;;;10.41;55.49;98354.66;10512875;28;20575;-67
2023/11/10 09:56:31;;;;;;;1.35;0.57;;;;;;;10.53;53.22;98363.25;10507388;28;20059;-67
2023/11/10 10:01:33;;;;;;;0.73;0.50;;;;;;;10.30;54.90;98351.25;10515153;28;20123;-67
2023/11/10 10:06:36;;;;;;;1.13;0.70;;;;;;;10.42;54.67;98353.69;10514544;28;20109;-67
2023/11/10 10:11:39;;;;;;;2.40;0.90;;;;;;;10.40;54.31;98354.75;10497795;28;20055;-68
2023/11/10 10:16:54;;;;;;;4.38;1.75;;;;;;;10.42;53.37;98360.69;10511738;28;20486;-67
2023/11/10 10:21:59;;;;;;;1.73;0.85;;;;;;;10.38;54.08;98349.69;10496337;28;20040;-67
2023/11/10 10:27:01;;;;;;;1.08;0.70;;;;;;;10.49;53.85;98352.22;10513000;28;20109;-67
2023/11/10 10:32:03;;;;;;;0.80;0.40;;;;;;;10.60;52.69;98348.72;10515683;28;20048;-68
2023/11/10 10:37:05;;;;;;;3.45;0.70;;;;;;;10.57;53.42;98337.66;10514364;28;20079;-67
2023/11/10 10:42:15;;;;;;;0.85;0.50;;;;;;;10.56;52.24;98344.72;10513967;28;20044;-67
2023/11/10 10:47:18;;;;;;;2.20;0.90;;;;;;;10.59;53.35;98336.59;10515159;28;20048;-67
2023/11/10 10:52:23;;;;;;;1.92;1.02;;;;;;;10.48;52.73;98326.22;10492574;28;20048;-67
2023/11/10 10:57:26;;;;;;;1.48;0.65;;;;;;;10.52;52.80;98325.00;10490956;28;20044;-68
2023/11/10 11:02:30;;;;;;;2.38;0.85;;;;;;;10.72;52.44;98326.75;10512556;28;20891;-67
2023/11/10 11:07:56;;;;;;;0.65;0.57;;;;;;;10.75;51.36;98313.41;10513685;28;20048;-67
2023/11/10 11:13:36;;;;;;;1.05;0.77;;;;;;;10.82;51.47;98318.94;10514449;28;20066;-67
2023/11/10 11:18:55;;;;;;;1.27;0.75;;;;;;;10.74;51.38;98313.53;10515314;28;20056;-67
2023/11/10 11:24:06;;;;;;;1.67;0.93;;;;;;;10.88;51.45;98311.41;10513285;28;20040;-67
2023/11/10 11:29:09;;;;;;;2.35;0.60;;;;;;;10.80;51.53;98295.53;10513052;28;20440;-67
2023/11/10 11:34:15;;;;;;;0.65;0.65;;;;;;;10.79;51.70;98290.41;10511893;28;20612;-67
2023/11/10 11:39:19;;;;;;;0.88;0.70;;;;;;;10.74;50.01;98284.78;10512939;28;20056;-68
2023/11/10 11:44:26;;;;;;;2.03;0.80;;;;;;;10.84;50.93;98283.84;10494928;28;20044;-68
2023/11/10 11:49:29;;;;;;;1.25;0.77;;;;;;;10.67;51.16;98275.78;10513330;28;20056;-67
2023/11/10 11:54:31;;;;;;;8.55;2.70;;;;;;;10.62;50.37;98280.59;10514499;28;20632;-67
2023/11/10 11:59:34;;;;;;;1.88;0.88;;;;;;;10.64;50.82;98266.44;10464739;28;20105;-67
2023/11/10 12:04:36;;;;;;;1.80;0.73;;;;;;;10.95;50.84;98257.56;10515562;28;20048;-67
2023/11/10 12:09:39;;;;;;;1.38;1.02;;;;;;;11.20;50.44;98261.50;10514389;28;20143;-67
2023/11/10 12:14:41;;;;;;;1.67;1.10;;;;;;;10.98;50.07;98265.16;10515329;28;20385;-67
2023/11/10 12:19:44;;;;;;;1.25;0.70;;;;;;;10.77;50.43;98274.88;10520172;28;20055;-67
2023/11/10 12:24:48;;;;;;;1.35;0.63;;;;;;;10.45;50.85;98266.38;10522346;28;20075;-68
2023/11/10 12:29:51;;;;;;;2.50;1.10;;;;;;;10.45;51.15;98268.97;10521896;28;20462;-68
2023/11/10 12:34:55;;;;;;;1.52;1.00;;;;;;;10.31;50.29;98259.72;10522670;28;20145;-69
2023/11/10 12:39:58;;;;;;;0.65;0.60;;;;;;;10.25;50.81;98256.78;10521313;28;20055;-69
2023/11/10 12:45:00;;;;;;;1.05;0.63;;;;;;;10.17;51.58;98249.59;10522530;28;20048;-67
2023/11/10 12:50:09;;;;;;;3.78;0.88;;;;;;;10.08;50.87;98246.91;10521035;28;20468;-67
2023/11/10 12:55:12;;;;;;;2.38;1.00;;;;;;;10.01;51.46;98245.78;10521004;28;20185;-67
2023/11/10 13:00:15;;;;;;;3.88;0.60;;;;;;;10.12;51.66;98249.16;10520236;28;20047;-67
2023/11/10 13:05:20;;;;;;;2.88;0.82;;;;;;;10.07;51.92;98245.28;10521013;28;20583;-68
2023/11/10 13:10:22;;;;;;;2.08;1.20;;;;;;;10.02;52.00;98250.03;10503328;28;20055;-67
2023/11/10 13:15:24;;;;;;;2.97;1.30;;;;;;;10.05;52.14;98253.25;10520063;28;20135;-66
2023/11/10 13:20:32;;;;;;;1.10;0.73;;;;;;;9.97;52.50;98258.25;10520317;28;20131;-68
2023/11/10 13:25:37;;;;;;;1.80;1.00;;;;;;;9.90;52.53;98257.13;10502216;28;20126;-68
2023/11/10 13:30:39;;;;;;;1.42;0.98;;;;;;;9.79;52.32;98256.38;10519596;28;20580;-68
2023/11/10 13:35:41;;;;;;;1.27;0.82;;;;;;;9.87;53.18;98261.78;10513849;28;20047;-68
2023/11/10 13:40:43;;;;;;;2.53;0.63;;;;;;;10.02;52.74;98258.72;10494848;28;20126;-68
2023/11/10 13:45:46;;;;;;;2.25;0.57;;;;;;;10.32;52.29;98253.50;10515698;28;21241;-68
2023/11/10 13:50:48;;;;;;;1.17;0.80;;;;;;;10.41;52.02;98246.69;10503054;28;20055;-68
2023/11/10 13:55:52;;;;;;;3.20;1.02;;;;;;;10.76;51.84;98239.25;10510500;28;20403;-66
2023/11/10 14:00:58;;;;;;;1.30;0.88;;;;;;;10.98;51.86;98233.78;10482474;28;20241;-68
2023/11/10 14:06:00;;;;;;;2.90;0.82;;;;;;;10.95;51.54;98235.84;10480200;28;20047;-68
2023/11/10 14:11:02;;;;;;;2.40;0.95;;;;;;;11.06;51.84;98236.56;10510952;28;20047;-68
2023/11/10 14:16:05;;;;;;;2.70;0.93;;;;;;;11.01;51.87;98230.06;10508645;28;20109;-68
2023/11/10 14:21:08;;;;;;;2.03;0.98;;;;;;;11.14;51.94;98236.72;10503260;28;20129;-68
2023/11/10 14:26:10;;;;;;;1.65;0.75;;;;;;;10.96;52.17;98247.94;10509038;28;20043;-68
2023/11/10 14:31:13;;;;;;;2.50;0.82;;;;;;;10.66;52.31;98250.63;10508849;28;20048;-68
2023/11/10 14:36:19;;;;;;;2.85;1.13;;;;;;;10.45;52.82;98254.13;10515609;28;20059;-68
2023/11/10 14:41:23;;;;;;;1.92;1.20;;;;;;;10.25;53.09;98251.56;10493101;28;20056;-67
2023/11/10 14:46:26;;;;;;;4.82;1.02;;;;;;;10.28;53.22;98251.28;10515266;28;20480;-68
2023/11/10 14:51:35;;;;;;;1.17;0.90;;;;;;;10.22;53.41;98246.56;10511133;28;20044;-67
2023/11/10 14:56:37;;;;;;;5.75;1.83;;;;;;;10.11;53.49;98239.69;10488616;28;20124;-68
2023/11/10 15:01:39;;;;;;;3.17;1.30;;;;;;;9.89;54.03;98244.22;10516489;28;20040;-68
2023/11/10 15:06:42;;;;;;;4.35;1.80;;;;;;;9.87;54.35;98244.31;10515012;28;20045;-68
2023/11/10 15:11:44;;;;;;;1.85;1.10;;;;;;;9.95;54.31;98244.50;10511929;28;20477;-68
2023/11/10 15:16:47;;;;;;;3.25;1.40;;;;;;;9.84;54.49;98235.91;10513124;28;20926;-67
2023/11/10 15:21:49;;;;;;;1.40;0.80;;;;;;;9.68;54.96;98241.59;10512756;28;20127;-68
2023/11/10 15:26:51;;;;;;;3.63;1.02;;;;;;;9.74;55.15;98241.09;10510882;28;20143;-67
2023/11/10 15:31:54;;;;;;;2.78;0.93;;;;;;;9.57;55.53;98234.63;10511615;28;20047;-67
2023/11/10 15:37:01;;;;;;;1.50;1.05;;;;;;;9.44;55.62;98243.59;10515165;28;20044;-67
2023/11/10 15:42:04;;;;;;;1.83;1.40;;;;;;;9.39;55.75;98250.94;10514823;28;20044;-67
2023/11/10 15:47:07;;;;;;;2.30;1.23;;;;;;;9.34;56.22;98238.25;10511167;28;20075;-67
2023/11/10 15:52:09;;;;;;;5.22;2.03;;;;;;;9.42;56.29;98242.88;10499020;28;20068;-67
2023/11/10 15:57:11;;;;;;;8.18;2.85;;;;;;;9.55;56.36;98243.50;10521614;28;20097;-68
2023/11/10 16:02:13;;;;;;;2.38;1.10;;;;;;;9.29;57.55;98243.03;10518806;28;20043;-63
2023/11/10 16:07:16;;;;;;;1.83;1.10;;;;;;;9.20;57.57;98237.75;10521783;28;20055;-63
2023/11/10 16:12:19;;;;;;;0.95;0.70;;;;;;;9.07;58.63;98234.47;10501659;28;20079;-63
2023/11/10 16:17:22;;;;;;;0.88;0.60;;;;;;;8.96;58.38;98242.31;10520443;28;20054;-66
2023/11/10 16:22:24;;;;;;;2.80;0.80;;;;;;;8.81;58.34;98244.38;10510097;28;20074;-64
2023/11/10 16:27:26;;;;;;;1.27;0.65;;;;;;;8.58;58.87;98248.78;10510477;28;20442;-64
2023/11/10 16:32:31;;;;;;;1.33;0.85;;;;;;;8.58;58.67;98258.38;10508775;28;20052;-64
2023/11/10 16:37:34;;;;;;;2.55;0.60;;;;;;;8.69;58.79;98272.22;10517528;28;20057;-65
2023/11/10 16:42:36;;;;;;;0.75;0.65;;;;;;;8.81;58.44;98267.84;10514015;28;20393;-64
2023/11/10 16:47:38;;;;;;;4.15;1.40;;;;;;;8.82;58.61;98277.28;10510326;28;20074;-64
2023/11/10 16:52:41;;;;;;;1.25;0.80;;;;;;;8.79;58.76;98277.56;10518101;28;20071;-64
2023/11/10 16:57:43;;;;;;;2.10;1.15;;;;;;;8.83;58.74;98279.78;10520666;28;20089;-64
2023/11/10 17:02:45;;;;;;;1.00;0.73;;;;;;;8.78;58.81;98271.50;10518756;28;20127;-64
2023/11/10 17:07:50;;;;;;;4.00;1.40;;;;;;;8.89;58.95;98262.84;10500891;28;20205;-64
2023/11/10 17:12:53;;;;;;;2.63;1.00;;;;;;;9.01;58.45;98261.03;10499285;28;20555;-64
2023/11/10 17:17:56;;;;;;;2.55;0.68;;;;;;;8.97;58.44;98264.84;10518315;28;20032;-64
2023/11/10 17:22:57;;;;;;;2.15;1.20;;;;;;;8.91;58.42;98262.72;10520148;28;20075;-63
2023/11/10 17:27:59;;;;;;;1.05;0.88;;;;;;;9.04;58.33;98259.00;10516565;28;20048;-62
2023/11/10 17:33:02;;;;;;;1.42;1.20;;;;;;;8.95;58.29;98257.16;10498068;28;20125;-63
2023/11/10 17:38:05;;;;;;;2.80;0.90;;;;;;;8.97;58.19;98257.84;10518243;28;20051;-63
2023/11/10 17:43:08;;;;;;;3.10;0.93;;;;;;;9.09;57.89;98261.25;10518819;28;20134;-63
2023/11/10 17:48:10;;;;;;;1.55;0.77;;;;;;;9.07;57.81;98266.59;10517255;28;20048;-63
2023/11/10 17:53:12;;;;;;;1.38;0.80;;;;;;;9.13;57.99;98260.88;10518567;28;20047;-63
2023/11/10 17:58:14;;;;;;;2.63;1.17;;;;;;;9.15;57.92;98265.97;10495215;28;20123;-64
2023/11/10 18:03:16;;;;;;;1.48;0.80;;;;;;;9.14;57.64;98254.69;10520191;28;20048;-63
2023/11/10 18:08:19;;;;;;;2.42;1.08;;;;;;;9.03;57.63;98257.34;10515397;28;20059;-63
2023/11/10 18:13:21;;;;;;;1.60;0.80;;;;;;;9.05;57.47;98259.84;10493322;28;20063;-63
2023/11/10 18:18:23;;;;;;;1.60;0.70;;;;;;;8.74;57.79;98253.63;10511862;28;20492;-65
2023/11/10 18:23:28;;;;;;;10.82;1.40;;;;;;;8.50;58.19;98248.56;10493515;28;20178;-65
2023/11/10 18:28:30;;;;;;;1.20;0.60;;;;;;;8.47;58.58;98234.91;10509683;28;20052;-64
2023/11/10 18:33:34;;;;;;;1.17;0.85;;;;;;;8.35;58.94;98238.47;10513930;28;20380;-65
2023/11/10 18:38:36;;;;;;;0.88;0.73;;;;;;;8.24;59.21;98234.09;10515540;28;20138;-64
2023/11/10 18:43:38;;;;;;;3.38;1.38;;;;;;;8.16;59.28;98228.66;10516228;28;20060;-64
2023/11/10 18:48:43;;;;;;;1.50;0.90;;;;;;;7.99;59.71;98222.13;10515832;28;20051;-64
2023/11/10 18:53:47;;;;;;;2.42;0.95;;;;;;;8.12;59.52;98229.03;10496299;28;20075;-65
2023/11/10 18:58:52;;;;;;;1.42;0.85;;;;;;;8.19;59.91;98227.59;10512952;28;20365;-65
2023/11/10 19:03:55;;;;;;;2.38;1.00;;;;;;;8.26;59.81;98218.38;10505682;28;20488;-65
2023/11/10 19:08:57;;;;;;;3.80;0.95;;;;;;;8.41;59.56;98218.00;10478200;28;20051;-64
2023/11/10 19:13:59;;;;;;;1.23;0.98;;;;;;;8.48;59.52;98213.16;10485612;28;20193;-64
2023/11/10 19:19:01;;;;;;;1.80;1.05;;;;;;;8.37;59.61;98205.31;10505594;28;20492;-64
2023/11/10 19:24:04;;;;;;;0.82;0.77;;;;;;;8.32;59.93;98199.66;10513647;28;20047;-64
2023/11/10 19:29:06;;;;;;;0.95;0.80;;;;;;;8.22;59.95;98198.72;10512694;28;20043;-63
2023/11/10 19:34:08;;;;;;;2.83;1.55;;;;;;;8.27;60.20;98194.81;10491590;28;20969;-63
2023/11/10 19:39:14;;;;;;;1.52;1.15;;;;;;;8.27;60.13;98191.38;10506494;28;20474;-64
2023/11/10 19:44:16;;;;;;;3.15;1.48;;;;;;;8.20;60.10;98190.19;10506895;28;20647;-64
2023/11/10 19:49:19;;;;;;;3.40;1.10;;;;;;;8.06;60.51;98196.41;10495395;28;20050;-63
2023/11/10 19:54:21;;;;;;;4.32;1.23;;;;;;;8.11;60.60;98188.28;10481638;28;20044;-63
2023/11/10 19:59:26;;;;;;;5.57;1.20;;;;;;;8.09;60.65;98184.94;10497154;28;20223;-64
2023/11/10 20:04:28;;;;;;;4.75;1.50;;;;;;;8.14;60.59;98177.66;10491393;28;20040;-63
2023/11/10 20:09:30;;;;;;;4.05;1.50;;;;;;;8.19;60.71;98167.69;10503621;28;20581;-63
2023/11/10 20:14:32;;;;;;;1.38;1.02;;;;;;;8.31;60.72;98174.56;10511387;28;20143;-63
2023/11/10 20:19:34;;;;;;;5.22;1.80;;;;;;;8.24;60.93;98168.19;10474122;28;20635;-63
2023/11/10 20:24:40;;;;;;;2.22;1.25;;;;;;;8.29;60.93;98159.06;10511903;28;20083;-63
2023/11/10 20:29:46;;;;;;;3.97;1.48;;;;;;;8.38;60.87;98141.88;10507738;28;20044;-63
2023/11/10 20:34:48;;;;;;;2.33;1.45;;;;;;;8.39;60.92;98156.53;10511602;28;20044;-63
2023/11/10 20:39:50;;;;;;;4.38;1.42;;;;;;;8.50;60.74;98152.16;10511733;28;20056;-63
2023/11/10 20:44:52;;;;;;;0.98;0.80;;;;;;;8.49;61.35;98155.69;10518770;28;20163;-63
2023/11/10 20:49:55;;;;;;;1.98;1.05;;;;;;;8.55;61.70;98133.53;10516326;28;21102;-62
2023/11/10 20:54:57;;;;;;;2.40;1.00;;;;;;;8.55;61.78;98126.56;10517023;28;20437;-63
2023/11/10 21:00:00;;;;;;;3.08;1.40;;;;;;;8.47;62.34;98115.91;10513200;28;20040;-63
2023/11/10 21:05:09;;;;;;;3.42;1.40;;;;;;;8.48;62.52;98107.16;10515557;28;20559;-63
2023/11/10 21:10:12;;;;;;;3.92;0.90;;;;;;;8.37;62.97;98094.16;10518634;28;20084;-63
2023/11/10 21:15:14;;;;;;;1.85;0.98;;;;;;;8.42;62.91;98101.63;10515650;28;20101;-63
2023/11/10 21:20:16;;;;;;;2.03;1.10;;;;;;;8.31;63.18;98096.41;10517970;28;20067;-62
2023/11/10 21:25:19;;;;;;;1.52;0.90;;;;;;;8.16;63.87;98089.84;10516312;28;20558;-63
2023/11/10 21:30:23;;;;;;;1.75;1.15;;;;;;;8.27;63.37;98093.25;10514310;28;20040;-63
2023/11/10 21:35:25;;;;;;;0.90;0.82;;;;;;;8.20;63.13;98086.84;10515019;28;20052;-63
2023/11/10 21:40:28;;;;;;;1.27;0.60;;;;;;;8.16;63.37;98079.41;10516994;28;20547;-63
2023/11/10 21:45:31;;;;;;;1.48;0.93;;;;;;;8.21;63.28;98065.09;10514861;28;20526;-63
2023/11/10 21:50:33;;;;;;;3.35;1.00;;;;;;;8.13;63.59;98059.66;10514619;28;20113;-63
2023/11/10 21:55:35;;;;;;;2.72;1.27;;;;;;;8.09;63.46;98065.19;10513605;28;20607;-63
2023/11/10 22:00:37;;;;;;;1.50;0.65;;;;;;;7.96;63.26;98058.34;10515033;28;20050;-63
2023/11/10 22:05:41;;;;;;;3.15;0.85;;;;;;;7.82;63.64;98057.78;10513651;28;20048;-63
2023/11/10 22:10:43;;;;;;;2.60;1.33;;;;;;;7.65;63.92;98053.88;10508087;28;20561;-63
2023/11/10 22:15:45;;;;;;;3.08;1.35;;;;;;;7.61;63.90;98051.66;10491862;28;20055;-63
2023/11/10 22:20:47;;;;;;;1.55;0.70;;;;;;;7.71;63.84;98050.78;10496057;28;20472;-63
2023/11/10 22:25:49;;;;;;;1.80;1.08;;;;;;;7.74;64.09;98047.97;10514820;28;20048;-63
2023/11/10 22:30:51;;;;;;;3.50;1.17;;;;;;;7.76;64.61;98040.88;10496372;28;20056;-63
2023/11/10 22:35:54;;;;;;;2.85;0.98;;;;;;;7.80;64.18;98039.69;10511898;28;20038;-63
2023/11/10 22:40:56;;;;;;;1.42;1.02;;;;;;;7.80;64.29;98031.03;10514579;28;20109;-63
2023/11/10 22:45:58;;;;;;;1.88;0.75;;;;;;;7.94;64.17;98025.56;10512176;28;20135;-63
2023/11/10 22:51:02;;;;;;;0.95;0.75;;;;;;;7.94;64.19;98028.19;10493820;28;20040;-62
2023/11/10 22:56:05;;;;;;;2.25;0.93;;;;;;;7.93;64.17;98021.31;10511164;28;20063;-63
2023/11/10 23:01:07;;;;;;;1.15;0.85;;;;;;;7.91;64.36;98028.44;10510695;28;20052;-63
2023/11/10 23:06:11;;;;;;;1.58;1.30;;;;;;;8.00;64.16;98020.72;10508712;28;20075;-63
2023/11/10 23:11:14;;;;;;;0.93;0.80;;;;;;;7.98;64.23;98019.16;10511732;28;20036;-63
2023/11/10 23:16:16;;;;;;;3.20;2.10;;;;;;;7.94;64.35;98010.78;10495608;28;20522;-63
2023/11/10 23:21:19;;;;;;;2.38;1.23;;;;;;;8.01;64.29;98013.75;10494030;28;20058;-62
2023/11/10 23:26:22;;;;;;;2.97;1.02;;;;;;;8.03;64.27;98009.25;10510877;28;20036;-63
2023/11/10 23:31:25;;;;;;;1.63;0.90;;;;;;;8.15;64.17;98012.66;10514525;28;20044;-63
2023/11/10 23:36:27;;;;;;;2.15;0.80;;;;;;;8.29;64.04;98008.00;10514075;28;20089;-63
2023/11/10 23:41:29;;;;;;;0.88;0.85;;;;;;;8.37;63.98;98009.97;10514879;28;20060;-63